• Join FlightAware (Why Join?)
  • Login
  • US Flag 
03:41PM EDT


 

Airport Tracker/Info


-or-


 

Live Flight TrackerFlight Track Log ✈ LXJ541 ✈ 21-Apr-2013 ✈ KBED - KJFK

Flight Track Log - Related Links

Times and Time Zones

All times are in EDT time to prevent confusion due to time zone crossing. See the LXJ541 flight status page for this flight to view local times or setup timezone preferences in your user account.

Time Position Orientation Groundspeed Altitude Reporting Facility
EDT Latitude Longitude Course Direction KTS MPH feet Rate Location/Type
03:32PM 42.4667 -71.3000 251° West 149 171 1,000  Level KA90
03:33PM 42.4500 -71.3667 251° West 203 234 2,700 1,500 Climbing KA90
03:34PM 42.4000 -71.3500 166° South 237 273 4,100 3,720 Climbing KA90
03:35PM 42.3333 -71.2833 144° Southeast 289 333 9,900 3,780 Climbing KA90
03:36PM 42.2500 -71.2000 143° Southeast 370 426 12,100 1,860 Climbing KA90
03:37PM 42.1697 -71.1094 140° Southeast 419 482 13,800 900 Climbing Boston Center
03:38PM 42.0872 -71.0189 141° Southeast 385 443 14,000 60 Climbing Boston Center
03:39PM 42.0006 -70.9258 141° Southeast 391 450 14,000  Level Boston Center
03:40PM 41.9181 -70.8386 142° Southeast 391 450 14,000  Level Boston Center
03:41PM 41.8275 -70.7769 153° Southeast 367 422 14,000  Level Boston Center
03:42PM 41.7303 -70.8183 198° South 329 379 14,000  Level Boston Center
03:43PM 41.6347 -70.8403 190° South 342 394 14,000  Level Boston Center
03:44PM 41.5472 -70.8508 185° South 350 403 14,000  Level Boston Center
03:45PM 41.4350 -70.8783 190° South 362 417 14,000  Level Boston Center
03:46PM 41.3394 -70.9003 190° South 367 422 14,000  Level Boston Center
03:47PM 41.2781 -70.9844 226° Southwest 319 367 14,000  Level Boston Center
03:48PM 41.2544 -71.0983 255° West 315 362 14,000  Level Boston Center
03:49PM 41.2369 -71.2033 258° West 329 379 14,000  Level Boston Center
03:50PM 41.2133 -71.3308 256° West 329 379 14,000  Level Boston Center
03:51PM 41.1956 -71.4358 257° West 329 379 14,000  Level Boston Center
03:52PM 41.1694 -71.5633 255° West 329 379 14,000  Level Boston Center
03:53PM 41.1597 -71.6572 262° West 314 361 14,000  Level Boston Center
03:54PM 41.1439 -71.7647 259° West 282 325 14,000  Level Boston Center
03:55PM 41.1358 -71.8531 263° West 276 318 14,000  Level Boston Center
03:56PM 41.1197 -71.9469 257° West 276 318 14,000  Level Boston Center
03:57PM 41.1075 -72.0461 261° West 276 318 14,000  Level Boston Center
03:58PM 41.0933 -72.1428 259° West 276 318 14,000  Level Boston Center
03:59PM 41.0706 -72.2392 253° West 276 318 14,000  Level Boston Center
04:00PM 41.0458 -72.3328 251° West 276 318 14,000  Level Boston Center
04:01PM 41.0042 -72.4181 237° Southwest 276 318 14,000  Level Boston Center
04:02PM 40.9603 -72.5061 237° Southwest 282 325 14,000  Level Boston Center
04:03PM 40.9164 -72.5883 235° Southwest 282 325 14,000 -300 Level Boston Center
04:04PM 40.8683 -72.6872 237° Southwest 293 337 13,500 -960 Descending Boston Center
04:05PM 40.8333 -72.7333 225° Southwest 276 318 12,400 -960 Descending New York TRACON
04:06PM 40.7833 -72.8333 237° Southwest 286 329 11,800 -1,200 Descending New York TRACON
04:07PM 40.7500 -72.9167 242° Southwest 278 320 9,900 -1,740 Descending New York TRACON
04:08PM 40.7167 -73.0000 242° Southwest 271 312 8,600 -1,920 Descending New York TRACON
04:09PM 40.6833 -73.1000 246° West 279 321 6,300 -1,800 Descending New York TRACON
04:10PM 40.6667 -73.1833 255° West 272 313 5,100 -660 Descending New York TRACON
04:11PM 40.6167 -73.2667 232° Southwest 279 321 5,000 -540 Descending New York TRACON
04:12PM 40.5667 -73.3333 225° Southwest 255 293 4,100 -480 Descending New York TRACON
04:13PM 40.5167 -73.4000 225° Southwest 233 268 4,000 -60 Descending New York TRACON
04:14PM 40.5167 -73.4667 270° West 195 224 4,000 -420 Level New York TRACON
04:15PM 40.5500 -73.4833 339° North 172 198 3,300 -540 Descending New York TRACON
04:16PM 40.5667 -73.5500 288° West 194 223 3,000 -180 Descending New York TRACON
04:17PM 40.5833 -73.6167 288° West 176 203 3,000 -540 Level New York TRACON
04:18PM 40.6000 -73.6667 294° West 188 216 2,000 -1,020 Descending New York TRACON
04:19PM 40.6333 -73.7167 311° West 155 178 1,000 -1,020 Descending New York TRACON
04:21PM 40.6333 -73.7667 296° West  Level FlightAware Approximate
04:28PM 40.6398 -73.7789 296° West  Level Estimated
04:29PM 40.6398 -73.7789 296° West  Level Estimated